sensor_id;sensor_type;location;lat;lon;timestamp;temperature;humidity
39021;DHT22;25188;51.958;5.842;2023-02-10T00:01:14;3.00;92.50
39021;DHT22;25188;51.958;5.842;2023-02-10T00:03:41;3.10;92.80
39021;DHT22;25188;51.958;5.842;2023-02-10T00:06:07;3.10;92.80
39021;DHT22;25188;51.958;5.842;2023-02-10T00:08:34;3.10;92.80
39021;DHT22;25188;51.958;5.842;2023-02-10T00:11:02;3.10;93.00
39021;DHT22;25188;51.958;5.842;2023-02-10T00:13:28;3.10;93.00
39021;DHT22;25188;51.958;5.842;2023-02-10T00:15:56;3.10;93.10
39021;DHT22;25188;51.958;5.842;2023-02-10T00:18:22;3.20;93.30
39021;DHT22;25188;51.958;5.842;2023-02-10T00:20:48;3.10;93.30
39021;DHT22;25188;51.958;5.842;2023-02-10T00:23:13;3.10;93.30
39021;DHT22;25188;51.958;5.842;2023-02-10T00:25:39;3.10;93.40
39021;DHT22;25188;51.958;5.842;2023-02-10T00:28:05;3.10;93.40
39021;DHT22;25188;51.958;5.842;2023-02-10T00:30:31;3.00;93.40
39021;DHT22;25188;51.958;5.842;2023-02-10T00:32:57;3.10;93.50
39021;DHT22;25188;51.958;5.842;2023-02-10T00:35:22;3.10;93.60
39021;DHT22;25188;51.958;5.842;2023-02-10T00:37:48;3.00;93.60
39021;DHT22;25188;51.958;5.842;2023-02-10T00:40:14;3.00;93.70
39021;DHT22;25188;51.958;5.842;2023-02-10T00:42:40;3.00;93.70
39021;DHT22;25188;51.958;5.842;2023-02-10T00:45:06;3.00;93.90
39021;DHT22;25188;51.958;5.842;2023-02-10T00:47:31;3.00;94.00
39021;DHT22;25188;51.958;5.842;2023-02-10T00:49:57;3.00;94.20
39021;DHT22;25188;51.958;5.842;2023-02-10T00:52:23;3.00;94.30
39021;DHT22;25188;51.958;5.842;2023-02-10T00:54:49;3.00;94.40
39021;DHT22;25188;51.958;5.842;2023-02-10T00:57:15;3.00;94.50
39021;DHT22;25188;51.958;5.842;2023-02-10T00:59:41;3.00;94.60
39021;DHT22;25188;51.958;5.842;2023-02-10T01:02:07;3.00;94.70
39021;DHT22;25188;51.958;5.842;2023-02-10T01:04:33;3.00;94.80
39021;DHT22;25188;51.958;5.842;2023-02-10T01:06:59;3.00;94.80
39021;DHT22;25188;51.958;5.842;2023-02-10T01:09:25;3.00;94.90
39021;DHT22;25188;51.958;5.842;2023-02-10T01:11:50;3.00;95.00
39021;DHT22;25188;51.958;5.842;2023-02-10T01:14:16;3.00;95.10
39021;DHT22;25188;51.958;5.842;2023-02-10T01:16:42;2.90;95.20
39021;DHT22;25188;51.958;5.842;2023-02-10T01:19:08;2.90;95.30
39021;DHT22;25188;51.958;5.842;2023-02-10T01:21:34;2.90;95.40
39021;DHT22;25188;51.958;5.842;2023-02-10T01:24:02;2.90;96.00
39021;DHT22;25188;51.958;5.842;2023-02-10T01:26:28;2.90;95.90
39021;DHT22;25188;51.958;5.842;2023-02-10T01:28:54;2.90;95.90
39021;DHT22;25188;51.958;5.842;2023-02-10T01:31:20;2.90;96.00
39021;DHT22;25188;51.958;5.842;2023-02-10T01:33:47;2.80;95.90
39021;DHT22;25188;51.958;5.842;2023-02-10T01:36:16;2.80;96.00
39021;DHT22;25188;51.958;5.842;2023-02-10T01:38:43;2.80;96.20
39021;DHT22;25188;51.958;5.842;2023-02-10T01:41:09;2.80;96.30
39021;DHT22;25188;51.958;5.842;2023-02-10T01:46:21;2.80;96.40
39021;DHT22;25188;51.958;5.842;2023-02-10T01:48:47;2.80;97.00
39021;DHT22;25188;51.958;5.842;2023-02-10T01:51:14;2.80;97.00
39021;DHT22;25188;51.958;5.842;2023-02-10T01:53:41;2.80;97.20
39021;DHT22;25188;51.958;5.842;2023-02-10T01:56:09;2.70;97.10
39021;DHT22;25188;51.958;5.842;2023-02-10T01:58:35;2.70;97.10
39021;DHT22;25188;51.958;5.842;2023-02-10T02:01:03;2.60;97.00
39021;DHT22;25188;51.958;5.842;2023-02-10T02:03:29;2.70;97.30
39021;DHT22;25188;51.958;5.842;2023-02-10T02:05:54;2.60;97.30
39021;DHT22;25188;51.958;5.842;2023-02-10T02:08:23;2.60;97.20
39021;DHT22;25188;51.958;5.842;2023-02-10T02:11:07;2.60;97.20
39021;DHT22;25188;51.958;5.842;2023-02-10T02:14:11;2.60;97.20
39021;DHT22;25188;51.958;5.842;2023-02-10T02:33:14;2.40;97.30
39021;DHT22;25188;51.958;5.842;2023-02-10T02:35:48;2.40;97.50
39021;DHT22;25188;51.958;5.842;2023-02-10T02:38:16;2.30;97.30
39021;DHT22;25188;51.958;5.842;2023-02-10T02:40:42;2.30;97.30
39021;DHT22;25188;51.958;5.842;2023-02-10T02:43:08;2.30;97.40
39021;DHT22;25188;51.958;5.842;2023-02-10T02:45:48;2.30;97.40
39021;DHT22;25188;51.958;5.842;2023-02-10T02:48:31;2.20;97.50
39021;DHT22;25188;51.958;5.842;2023-02-10T02:53:55;2.20;97.80
39021;DHT22;25188;51.958;5.842;2023-02-10T02:59:12;2.20;97.60
39021;DHT22;25188;51.958;5.842;2023-02-10T03:04:21;2.20;97.40
39021;DHT22;25188;51.958;5.842;2023-02-10T03:06:47;2.20;97.40
39021;DHT22;25188;51.958;5.842;2023-02-10T03:09:14;2.20;97.40
39021;DHT22;25188;51.958;5.842;2023-02-10T03:11:39;2.20;97.60
39021;DHT22;25188;51.958;5.842;2023-02-10T03:14:05;2.20;97.60
39021;DHT22;25188;51.958;5.842;2023-02-10T03:16:31;2.20;97.60
39021;DHT22;25188;51.958;5.842;2023-02-10T03:18:57;2.10;97.60
39021;DHT22;25188;51.958;5.842;2023-02-10T03:21:22;2.10;97.60
39021;DHT22;25188;51.958;5.842;2023-02-10T03:23:48;2.10;97.70
39021;DHT22;25188;51.958;5.842;2023-02-10T03:26:14;2.20;97.80
39021;DHT22;25188;51.958;5.842;2023-02-10T03:28:39;2.10;98.00
39021;DHT22;25188;51.958;5.842;2023-02-10T03:31:06;2.00;97.70
39021;DHT22;25188;51.958;5.842;2023-02-10T03:33:33;2.00;97.60
39021;DHT22;25188;51.958;5.842;2023-02-10T03:35:59;2.00;97.60
39021;DHT22;25188;51.958;5.842;2023-02-10T03:38:25;1.90;97.50
39021;DHT22;25188;51.958;5.842;2023-02-10T03:40:52;1.90;97.40
39021;DHT22;25188;51.958;5.842;2023-02-10T03:43:19;1.90;97.30
39021;DHT22;25188;51.958;5.842;2023-02-10T03:45:44;1.80;97.20
39021;DHT22;25188;51.958;5.842;2023-02-10T03:48:11;1.80;97.30
39021;DHT22;25188;51.958;5.842;2023-02-10T03:50:37;1.70;97.30
39021;DHT22;25188;51.958;5.842;2023-02-10T03:53:03;1.70;97.30
39021;DHT22;25188;51.958;5.842;2023-02-10T03:55:29;1.70;97.30
39021;DHT22;25188;51.958;5.842;2023-02-10T03:57:54;1.70;97.20
39021;DHT22;25188;51.958;5.842;2023-02-10T04:00:20;1.60;97.10
39021;DHT22;25188;51.958;5.842;2023-02-10T04:02:46;1.60;97.10
39021;DHT22;25188;51.958;5.842;2023-02-10T04:05:12;1.60;97.20
39021;DHT22;25188;51.958;5.842;2023-02-10T04:07:38;1.50;97.20
39021;DHT22;25188;51.958;5.842;2023-02-10T04:10:04;1.50;97.20
39021;DHT22;25188;51.958;5.842;2023-02-10T04:12:31;1.50;97.20
39021;DHT22;25188;51.958;5.842;2023-02-10T04:14:56;1.50;97.20
39021;DHT22;25188;51.958;5.842;2023-02-10T04:17:22;1.40;97.20
39021;DHT22;25188;51.958;5.842;2023-02-10T04:19:48;1.40;97.30
39021;DHT22;25188;51.958;5.842;2023-02-10T04:22:14;1.50;97.30
39021;DHT22;25188;51.958;5.842;2023-02-10T04:24:39;1.40;97.30
39021;DHT22;25188;51.958;5.842;2023-02-10T04:27:05;1.40;97.40
39021;DHT22;25188;51.958;5.842;2023-02-10T04:29:31;1.40;97.40
39021;DHT22;25188;51.958;5.842;2023-02-10T04:31:56;1.30;97.40
39021;DHT22;25188;51.958;5.842;2023-02-10T04:34:22;1.40;97.40
39021;DHT22;25188;51.958;5.842;2023-02-10T04:36:48;1.30;97.40
39021;DHT22;25188;51.958;5.842;2023-02-10T04:39:13;1.30;97.40
39021;DHT22;25188;51.958;5.842;2023-02-10T04:41:39;1.30;97.50
39021;DHT22;25188;51.958;5.842;2023-02-10T04:44:04;1.20;97.50
39021;DHT22;25188;51.958;5.842;2023-02-10T04:46:31;1.20;97.60
39021;DHT22;25188;51.958;5.842;2023-02-10T04:48:56;1.20;97.70
39021;DHT22;25188;51.958;5.842;2023-02-10T04:51:22;1.20;97.80
39021;DHT22;25188;51.958;5.842;2023-02-10T04:53:48;1.30;97.80
39021;DHT22;25188;51.958;5.842;2023-02-10T04:56:14;1.20;97.70
39021;DHT22;25188;51.958;5.842;2023-02-10T04:58:40;1.20;97.80
39021;DHT22;25188;51.958;5.842;2023-02-10T05:01:06;1.20;97.80
39021;DHT22;25188;51.958;5.842;2023-02-10T05:03:32;1.20;97.90
39021;DHT22;25188;51.958;5.842;2023-02-10T05:05:58;1.10;98.00
39021;DHT22;25188;51.958;5.842;2023-02-10T05:08:24;1.10;98.10
39021;DHT22;25188;51.958;5.842;2023-02-10T05:10:51;1.10;98.20
39021;DHT22;25188;51.958;5.842;2023-02-10T05:13:17;1.10;98.30
39021;DHT22;25188;51.958;5.842;2023-02-10T05:15:43;1.10;98.30
39021;DHT22;25188;51.958;5.842;2023-02-10T05:18:08;1.10;98.30
39021;DHT22;25188;51.958;5.842;2023-02-10T05:20:34;1.10;98.40
39021;DHT22;25188;51.958;5.842;2023-02-10T05:23:00;1.10;98.40
39021;DHT22;25188;51.958;5.842;2023-02-10T05:25:25;1.10;98.50
39021;DHT22;25188;51.958;5.842;2023-02-10T05:27:51;1.10;98.60
39021;DHT22;25188;51.958;5.842;2023-02-10T05:30:17;1.10;98.70
39021;DHT22;25188;51.958;5.842;2023-02-10T05:32:43;1.10;98.70
39021;DHT22;25188;51.958;5.842;2023-02-10T05:35:09;1.10;98.80
39021;DHT22;25188;51.958;5.842;2023-02-10T05:37:35;1.20;98.90
39021;DHT22;25188;51.958;5.842;2023-02-10T05:40:01;1.10;98.80
39021;DHT22;25188;51.958;5.842;2023-02-10T05:42:27;1.10;98.80
39021;DHT22;25188;51.958;5.842;2023-02-10T05:44:52;1.10;98.90
39021;DHT22;25188;51.958;5.842;2023-02-10T05:47:18;1.10;99.00
39021;DHT22;25188;51.958;5.842;2023-02-10T05:49:44;1.10;99.00
39021;DHT22;25188;51.958;5.842;2023-02-10T05:52:09;1.10;99.00
39021;DHT22;25188;51.958;5.842;2023-02-10T05:54:35;1.10;99.00
39021;DHT22;25188;51.958;5.842;2023-02-10T05:57:01;1.00;99.00
39021;DHT22;25188;51.958;5.842;2023-02-10T05:59:26;1.10;99.00
39021;DHT22;25188;51.958;5.842;2023-02-10T06:01:52;1.00;99.00
39021;DHT22;25188;51.958;5.842;2023-02-10T06:04:18;1.10;99.10
39021;DHT22;25188;51.958;5.842;2023-02-10T06:06:43;1.00;99.10
39021;DHT22;25188;51.958;5.842;2023-02-10T06:09:09;1.00;99.10
39021;DHT22;25188;51.958;5.842;2023-02-10T06:11:35;1.00;99.00
39021;DHT22;25188;51.958;5.842;2023-02-10T06:14:00;1.00;99.10
39021;DHT22;25188;51.958;5.842;2023-02-10T06:16:26;1.00;99.10
39021;DHT22;25188;51.958;5.842;2023-02-10T06:18:52;1.10;99.10
39021;DHT22;25188;51.958;5.842;2023-02-10T06:21:18;1.00;99.10
39021;DHT22;25188;51.958;5.842;2023-02-10T06:23:44;1.00;99.10
39021;DHT22;25188;51.958;5.842;2023-02-10T06:26:10;1.00;99.10
39021;DHT22;25188;51.958;5.842;2023-02-10T06:28:36;1.00;99.20
39021;DHT22;25188;51.958;5.842;2023-02-10T06:31:02;1.00;99.20
39021;DHT22;25188;51.958;5.842;2023-02-10T06:33:28;0.90;99.20
39021;DHT22;25188;51.958;5.842;2023-02-10T06:35:54;0.90;99.30
39021;DHT22;25188;51.958;5.842;2023-02-10T06:38:20;1.00;99.30
39021;DHT22;25188;51.958;5.842;2023-02-10T06:40:45;0.90;99.30
39021;DHT22;25188;51.958;5.842;2023-02-10T06:43:11;0.90;99.30
39021;DHT22;25188;51.958;5.842;2023-02-10T06:45:37;0.80;99.20
39021;DHT22;25188;51.958;5.842;2023-02-10T06:48:03;0.80;99.30
39021;DHT22;25188;51.958;5.842;2023-02-10T06:50:29;0.80;99.30
39021;DHT22;25188;51.958;5.842;2023-02-10T06:52:55;0.70;99.40
39021;DHT22;25188;51.958;5.842;2023-02-10T06:55:21;0.70;99.50
39021;DHT22;25188;51.958;5.842;2023-02-10T06:57:46;0.70;99.60
39021;DHT22;25188;51.958;5.842;2023-02-10T07:00:13;0.70;99.60
39021;DHT22;25188;51.958;5.842;2023-02-10T07:02:40;0.70;99.70
39021;DHT22;25188;51.958;5.842;2023-02-10T07:05:07;0.70;99.80
39021;DHT22;25188;51.958;5.842;2023-02-10T07:07:34;0.70;99.90
39021;DHT22;25188;51.958;5.842;2023-02-10T07:10:00;0.70;99.90
39021;DHT22;25188;51.958;5.842;2023-02-10T07:12:25;0.80;99.90
39021;DHT22;25188;51.958;5.842;2023-02-10T07:14:52;0.80;99.90
39021;DHT22;25188;51.958;5.842;2023-02-10T07:17:18;0.90;99.90
39021;DHT22;25188;51.958;5.842;2023-02-10T07:19:44;1.00;99.90
39021;DHT22;25188;51.958;5.842;2023-02-10T07:22:09;1.00;99.90
39021;DHT22;25188;51.958;5.842;2023-02-10T07:24:35;1.10;99.90
39021;DHT22;25188;51.958;5.842;2023-02-10T07:27:01;1.10;99.90
39021;DHT22;25188;51.958;5.842;2023-02-10T07:29:28;1.20;99.90
39021;DHT22;25188;51.958;5.842;2023-02-10T07:31:54;1.30;99.90
39021;DHT22;25188;51.958;5.842;2023-02-10T07:34:20;1.30;99.90
39021;DHT22;25188;51.958;5.842;2023-02-10T07:36:47;1.40;99.90
39021;DHT22;25188;51.958;5.842;2023-02-10T07:39:22;1.40;99.90
39021;DHT22;25188;51.958;5.842;2023-02-10T07:41:47;1.50;99.90
39021;DHT22;25188;51.958;5.842;2023-02-10T07:44:13;1.50;99.90
39021;DHT22;25188;51.958;5.842;2023-02-10T07:46:39;1.60;99.90
39021;DHT22;25188;51.958;5.842;2023-02-10T07:49:04;1.60;99.90
39021;DHT22;25188;51.958;5.842;2023-02-10T07:51:31;1.70;99.90
39021;DHT22;25188;51.958;5.842;2023-02-10T07:53:56;1.70;99.90
39021;DHT22;25188;51.958;5.842;2023-02-10T07:56:22;1.80;99.90
39021;DHT22;25188;51.958;5.842;2023-02-10T07:58:48;1.80;99.90
39021;DHT22;25188;51.958;5.842;2023-02-10T08:01:13;1.90;99.90
39021;DHT22;25188;51.958;5.842;2023-02-10T08:03:39;1.90;99.90
39021;DHT22;25188;51.958;5.842;2023-02-10T08:06:05;1.90;99.90
39021;DHT22;25188;51.958;5.842;2023-02-10T08:08:31;2.00;99.90
39021;DHT22;25188;51.958;5.842;2023-02-10T08:10:57;2.00;99.90
39021;DHT22;25188;51.958;5.842;2023-02-10T08:13:23;2.00;99.90
39021;DHT22;25188;51.958;5.842;2023-02-10T08:15:49;2.10;99.90
39021;DHT22;25188;51.958;5.842;2023-02-10T08:18:16;2.10;99.90
39021;DHT22;25188;51.958;5.842;2023-02-10T08:20:41;2.20;99.90
39021;DHT22;25188;51.958;5.842;2023-02-10T08:23:13;2.20;99.90
39021;DHT22;25188;51.958;5.842;2023-02-10T08:25:38;2.20;99.90
39021;DHT22;25188;51.958;5.842;2023-02-10T08:28:04;2.20;99.90
39021;DHT22;25188;51.958;5.842;2023-02-10T08:30:30;2.20;99.90
39021;DHT22;25188;51.958;5.842;2023-02-10T08:32:55;2.20;99.90
39021;DHT22;25188;51.958;5.842;2023-02-10T08:35:22;2.20;99.90
39021;DHT22;25188;51.958;5.842;2023-02-10T08:37:47;2.30;99.90
39021;DHT22;25188;51.958;5.842;2023-02-10T08:40:13;2.30;99.90
39021;DHT22;25188;51.958;5.842;2023-02-10T08:42:39;2.30;99.90
39021;DHT22;25188;51.958;5.842;2023-02-10T08:45:05;2.30;99.90
39021;DHT22;25188;51.958;5.842;2023-02-10T08:47:30;2.30;99.90
39021;DHT22;25188;51.958;5.842;2023-02-10T08:49:56;2.30;99.90
39021;DHT22;25188;51.958;5.842;2023-02-10T08:52:22;2.30;99.90
39021;DHT22;25188;51.958;5.842;2023-02-10T08:54:49;2.40;99.90
39021;DHT22;25188;51.958;5.842;2023-02-10T08:57:14;2.30;99.90
39021;DHT22;25188;51.958;5.842;2023-02-10T08:59:40;2.40;99.90
39021;DHT22;25188;51.958;5.842;2023-02-10T09:02:06;2.50;99.90
39021;DHT22;25188;51.958;5.842;2023-02-10T09:04:31;2.40;99.90
39021;DHT22;25188;51.958;5.842;2023-02-10T09:06:57;2.50;99.90
39021;DHT22;25188;51.958;5.842;2023-02-10T09:09:23;2.50;99.90
39021;DHT22;25188;51.958;5.842;2023-02-10T09:11:52;2.60;99.90
39021;DHT22;25188;51.958;5.842;2023-02-10T09:14:18;2.60;99.90
39021;DHT22;25188;51.958;5.842;2023-02-10T09:16:44;2.50;99.90
39021;DHT22;25188;51.958;5.842;2023-02-10T09:19:10;2.60;99.90
39021;DHT22;25188;51.958;5.842;2023-02-10T09:21:36;2.70;99.90
39021;DHT22;25188;51.958;5.842;2023-02-10T09:24:01;2.70;99.90
39021;DHT22;25188;51.958;5.842;2023-02-10T09:26:27;2.80;99.90
39021;DHT22;25188;51.958;5.842;2023-02-10T09:28:52;2.80;99.90
39021;DHT22;25188;51.958;5.842;2023-02-10T09:31:18;2.90;99.90
39021;DHT22;25188;51.958;5.842;2023-02-10T09:33:44;2.90;99.90
39021;DHT22;25188;51.958;5.842;2023-02-10T09:36:14;2.90;99.90
39021;DHT22;25188;51.958;5.842;2023-02-10T09:38:40;3.00;99.90
39021;DHT22;25188;51.958;5.842;2023-02-10T09:41:12;3.10;99.90
39021;DHT22;25188;51.958;5.842;2023-02-10T09:46:30;3.10;99.90
39021;DHT22;25188;51.958;5.842;2023-02-10T09:54:49;3.30;99.90
39021;DHT22;25188;51.958;5.842;2023-02-10T09:57:19;3.40;99.90
39021;DHT22;25188;51.958;5.842;2023-02-10T09:59:49;3.50;99.90
39021;DHT22;25188;51.958;5.842;2023-02-10T10:02:24;3.60;99.90
39021;DHT22;25188;51.958;5.842;2023-02-10T10:04:54;3.70;99.90
39021;DHT22;25188;51.958;5.842;2023-02-10T10:07:36;3.90;99.90
39021;DHT22;25188;51.958;5.842;2023-02-10T10:10:13;4.10;99.90
39021;DHT22;25188;51.958;5.842;2023-02-10T10:12:39;4.20;99.90
39021;DHT22;25188;51.958;5.842;2023-02-10T10:15:15;4.40;99.90
39021;DHT22;25188;51.958;5.842;2023-02-10T10:31:30;4.70;99.90
39021;DHT22;25188;51.958;5.842;2023-02-10T10:36:46;5.20;99.90
39021;DHT22;25188;51.958;5.842;2023-02-10T10:39:34;5.40;99.90
39021;DHT22;25188;51.958;5.842;2023-02-10T10:47:59;6.40;99.90
39021;DHT22;25188;51.958;5.842;2023-02-10T10:50:26;7.00;99.90
39021;DHT22;25188;51.958;5.842;2023-02-10T10:52:54;7.70;99.90
39021;DHT22;25188;51.958;5.842;2023-02-10T10:55:40;8.40;99.90
39021;DHT22;25188;51.958;5.842;2023-02-10T10:58:58;9.00;99.90
39021;DHT22;25188;51.958;5.842;2023-02-10T11:01:05;9.50;99.90
39021;DHT22;25188;51.958;5.842;2023-02-10T11:03:32;10.00;99.90
39021;DHT22;25188;51.958;5.842;2023-02-10T11:08:36;11.00;99.90
39021;DHT22;25188;51.958;5.842;2023-02-10T11:11:04;11.60;99.90
39021;DHT22;25188;51.958;5.842;2023-02-10T11:13:36;12.10;98.70
39021;DHT22;25188;51.958;5.842;2023-02-10T11:16:10;12.40;95.60
39021;DHT22;25188;51.958;5.842;2023-02-10T11:18:38;12.70;93.10
39021;DHT22;25188;51.958;5.842;2023-02-10T11:21:08;13.20;91.90
39021;DHT22;25188;51.958;5.842;2023-02-10T11:23:52;13.60;90.90
39021;DHT22;25188;51.958;5.842;2023-02-10T11:26:24;14.20;87.50
39021;DHT22;25188;51.958;5.842;2023-02-10T11:28:51;14.50;84.90
39021;DHT22;25188;51.958;5.842;2023-02-10T11:31:28;14.90;82.70
39021;DHT22;25188;51.958;5.842;2023-02-10T11:36:42;15.50;75.70
39021;DHT22;25188;51.958;5.842;2023-02-10T11:39:25;15.70;73.10
39021;DHT22;25188;51.958;5.842;2023-02-10T11:41:52;15.90;70.80
39021;DHT22;25188;51.958;5.842;2023-02-10T11:44:28;16.10;69.60
39021;DHT22;25188;51.958;5.842;2023-02-10T11:46:56;16.40;68.60
39021;DHT22;25188;51.958;5.842;2023-02-10T11:49:23;16.70;68.40
39021;DHT22;25188;51.958;5.842;2023-02-10T11:51:54;16.90;67.10
39021;DHT22;25188;51.958;5.842;2023-02-10T11:54:21;17.20;65.10
39021;DHT22;25188;51.958;5.842;2023-02-10T12:08:36;18.20;57.40
39021;DHT22;25188;51.958;5.842;2023-02-10T12:11:16;18.10;56.10
39021;DHT22;25188;51.958;5.842;2023-02-10T12:14:19;18.10;55.90
39021;DHT22;25188;51.958;5.842;2023-02-10T12:17:17;18.20;55.60
39021;DHT22;25188;51.958;5.842;2023-02-10T12:25:46;18.60;54.10
39021;DHT22;25188;51.958;5.842;2023-02-10T12:31:28;18.50;53.50
39021;DHT22;25188;51.958;5.842;2023-02-10T12:34:11;18.50;52.00
39021;DHT22;25188;51.958;5.842;2023-02-10T12:39:42;18.60;51.40
39021;DHT22;25188;51.958;5.842;2023-02-10T12:45:24;18.50;49.90
39021;DHT22;25188;51.958;5.842;2023-02-10T12:48:18;18.50;50.00
39021;DHT22;25188;51.958;5.842;2023-02-10T12:53:35;18.80;50.00
39021;DHT22;25188;51.958;5.842;2023-02-10T12:56:05;19.10;49.70
39021;DHT22;25188;51.958;5.842;2023-02-10T12:58:40;19.30;48.40
39021;DHT22;25188;51.958;5.842;2023-02-10T13:01:17;19.30;48.20
39021;DHT22;25188;51.958;5.842;2023-02-10T13:03:48;19.40;49.00
39021;DHT22;25188;51.958;5.842;2023-02-10T13:06:29;19.50;47.90
39021;DHT22;25188;51.958;5.842;2023-02-10T13:14:31;19.90;46.90
39021;DHT22;25188;51.958;5.842;2023-02-10T13:16:59;19.90;46.20
39021;DHT22;25188;51.958;5.842;2023-02-10T13:22:07;19.70;45.40
39021;DHT22;25188;51.958;5.842;2023-02-10T13:24:48;19.70;45.40
39021;DHT22;25188;51.958;5.842;2023-02-10T13:27:31;19.80;45.50
39021;DHT22;25188;51.958;5.842;2023-02-10T13:33:07;19.90;45.20
39021;DHT22;25188;51.958;5.842;2023-02-10T13:35:36;19.90;44.70
39021;DHT22;25188;51.958;5.842;2023-02-10T13:38:14;19.70;44.80
39021;DHT22;25188;51.958;5.842;2023-02-10T13:43:30;19.30;44.80
39021;DHT22;25188;51.958;5.842;2023-02-10T13:45:59;18.60;45.10
39021;DHT22;25188;51.958;5.842;2023-02-10T13:48:29;17.90;45.90
39021;DHT22;25188;51.958;5.842;2023-02-10T13:51:01;17.60;47.10
39021;DHT22;25188;51.958;5.842;2023-02-10T13:58:33;17.90;48.10
39021;DHT22;25188;51.958;5.842;2023-02-10T14:00:59;17.90;47.70
39021;DHT22;25188;51.958;5.842;2023-02-10T14:03:31;17.60;47.50
39021;DHT22;25188;51.958;5.842;2023-02-10T14:06:01;17.20;48.00
39021;DHT22;25188;51.958;5.842;2023-02-10T14:08:43;17.00;48.80
39021;DHT22;25188;51.958;5.842;2023-02-10T14:16:35;16.90;49.30
39021;DHT22;25188;51.958;5.842;2023-02-10T14:19:06;16.80;49.60
39021;DHT22;25188;51.958;5.842;2023-02-10T14:21:46;16.70;50.00
39021;DHT22;25188;51.958;5.842;2023-02-10T14:24:16;16.80;50.50
39021;DHT22;25188;51.958;5.842;2023-02-10T14:26:43;16.90;50.50
39021;DHT22;25188;51.958;5.842;2023-02-10T14:29:14;17.00;50.80
39021;DHT22;25188;51.958;5.842;2023-02-10T14:31:42;17.00;51.20
39021;DHT22;25188;51.958;5.842;2023-02-10T14:34:27;17.00;51.30
39021;DHT22;25188;51.958;5.842;2023-02-10T14:36:58;17.00;51.50
39021;DHT22;25188;51.958;5.842;2023-02-10T14:39:27;17.00;51.70
39021;DHT22;25188;51.958;5.842;2023-02-10T14:41:54;17.00;51.80
39021;DHT22;25188;51.958;5.842;2023-02-10T14:46:54;16.40;52.30
39021;DHT22;25188;51.958;5.842;2023-02-10T14:49:21;16.00;53.10
39021;DHT22;25188;51.958;5.842;2023-02-10T14:51:48;15.70;53.90
39021;DHT22;25188;51.958;5.842;2023-02-10T14:54:20;15.60;54.50
39021;DHT22;25188;51.958;5.842;2023-02-10T14:56:57;15.50;55.00
39021;DHT22;25188;51.958;5.842;2023-02-10T14:59:28;15.50;55.10
39021;DHT22;25188;51.958;5.842;2023-02-10T15:01:57;15.50;55.20
39021;DHT22;25188;51.958;5.842;2023-02-10T15:04:24;15.30;55.30
39021;DHT22;25188;51.958;5.842;2023-02-10T15:06:54;14.80;55.80
39021;DHT22;25188;51.958;5.842;2023-02-10T15:09:22;14.40;56.90
39021;DHT22;25188;51.958;5.842;2023-02-10T15:11:55;14.10;58.00
39021;DHT22;25188;51.958;5.842;2023-02-10T15:15:00;14.00;58.50
39021;DHT22;25188;51.958;5.842;2023-02-10T15:17:45;13.70;58.40
39021;DHT22;25188;51.958;5.842;2023-02-10T15:41:56;11.10;65.10
39021;DHT22;25188;51.958;5.842;2023-02-10T15:44:42;10.90;65.10
39021;DHT22;25188;51.958;5.842;2023-02-10T15:47:20;10.60;66.90
39021;DHT22;25188;51.958;5.842;2023-02-10T15:49:57;10.40;67.40
39021;DHT22;25188;51.958;5.842;2023-02-10T15:52:35;10.10;67.90
39021;DHT22;25188;51.958;5.842;2023-02-10T15:55:10;9.90;68.50
39021;DHT22;25188;51.958;5.842;2023-02-10T15:57:38;9.70;69.20
39021;DHT22;25188;51.958;5.842;2023-02-10T16:00:27;9.60;69.00
39021;DHT22;25188;51.958;5.842;2023-02-10T16:02:52;9.50;70.50
39021;DHT22;25188;51.958;5.842;2023-02-10T16:05:18;9.40;71.30
39021;DHT22;25188;51.958;5.842;2023-02-10T16:07:44;9.20;71.30
39021;DHT22;25188;51.958;5.842;2023-02-10T16:10:16;9.20;71.00
39021;DHT22;25188;51.958;5.842;2023-02-10T16:12:42;9.20;71.80
39021;DHT22;25188;51.958;5.842;2023-02-10T16:15:12;9.10;71.90
39021;DHT22;25188;51.958;5.842;2023-02-10T16:17:39;9.10;72.20
39021;DHT22;25188;51.958;5.842;2023-02-10T16:20:14;9.00;72.50
39021;DHT22;25188;51.958;5.842;2023-02-10T16:22:40;9.00;72.30
39021;DHT22;25188;51.958;5.842;2023-02-10T16:25:06;8.90;73.60
39021;DHT22;25188;51.958;5.842;2023-02-10T16:27:31;8.90;74.30
39021;DHT22;25188;51.958;5.842;2023-02-10T16:29:57;8.80;74.80
39021;DHT22;25188;51.958;5.842;2023-02-10T16:32:22;8.70;75.00
39021;DHT22;25188;51.958;5.842;2023-02-10T16:34:48;8.70;75.70
39021;DHT22;25188;51.958;5.842;2023-02-10T16:37:19;8.60;75.90
39021;DHT22;25188;51.958;5.842;2023-02-10T16:39:46;8.60;75.90
39021;DHT22;25188;51.958;5.842;2023-02-10T16:42:11;8.60;76.30
39021;DHT22;25188;51.958;5.842;2023-02-10T16:44:37;8.50;76.60
39021;DHT22;25188;51.958;5.842;2023-02-10T16:47:03;8.40;77.20
39021;DHT22;25188;51.958;5.842;2023-02-10T16:49:28;8.40;77.10
39021;DHT22;25188;51.958;5.842;2023-02-10T16:51:54;8.40;78.00
39021;DHT22;25188;51.958;5.842;2023-02-10T16:54:20;8.40;77.90
39021;DHT22;25188;51.958;5.842;2023-02-10T16:56:46;8.30;78.00
39021;DHT22;25188;51.958;5.842;2023-02-10T16:59:15;8.30;78.40
39021;DHT22;25188;51.958;5.842;2023-02-10T17:01:41;8.30;79.30
39021;DHT22;25188;51.958;5.842;2023-02-10T17:04:07;8.20;79.20
39021;DHT22;25188;51.958;5.842;2023-02-10T17:06:33;8.20;79.80
39021;DHT22;25188;51.958;5.842;2023-02-10T17:09:01;8.20;80.20
39021;DHT22;25188;51.958;5.842;2023-02-10T17:11:26;8.10;80.90
39021;DHT22;25188;51.958;5.842;2023-02-10T17:13:52;8.20;81.70
39021;DHT22;25188;51.958;5.842;2023-02-10T17:16:32;8.10;82.10
39021;DHT22;25188;51.958;5.842;2023-02-10T17:19:00;8.10;82.70
39021;DHT22;25188;51.958;5.842;2023-02-10T17:21:27;8.10;83.40
39021;DHT22;25188;51.958;5.842;2023-02-10T17:23:52;8.00;84.10
39021;DHT22;25188;51.958;5.842;2023-02-10T17:26:18;8.00;85.10
39021;DHT22;25188;51.958;5.842;2023-02-10T17:28:44;7.90;85.50
39021;DHT22;25188;51.958;5.842;2023-02-10T17:31:15;7.90;86.30
39021;DHT22;25188;51.958;5.842;2023-02-10T17:33:40;7.80;87.10
39021;DHT22;25188;51.958;5.842;2023-02-10T17:36:15;7.80;87.50
39021;DHT22;25188;51.958;5.842;2023-02-10T17:38:40;7.70;88.10
39021;DHT22;25188;51.958;5.842;2023-02-10T17:41:12;7.70;88.50
39021;DHT22;25188;51.958;5.842;2023-02-10T17:43:38;7.60;89.00
39021;DHT22;25188;51.958;5.842;2023-02-10T17:46:04;7.60;89.70
39021;DHT22;25188;51.958;5.842;2023-02-10T17:48:30;7.60;89.90
39021;DHT22;25188;51.958;5.842;2023-02-10T17:51:06;7.60;90.20
39021;DHT22;25188;51.958;5.842;2023-02-10T17:53:32;7.50;90.20
39021;DHT22;25188;51.958;5.842;2023-02-10T17:55:59;7.60;90.50
39021;DHT22;25188;51.958;5.842;2023-02-10T17:58:24;7.50;90.50
39021;DHT22;25188;51.958;5.842;2023-02-10T18:00:50;7.50;90.70
39021;DHT22;25188;51.958;5.842;2023-02-10T18:03:16;7.50;90.90
39021;DHT22;25188;51.958;5.842;2023-02-10T18:05:42;7.40;91.10
39021;DHT22;25188;51.958;5.842;2023-02-10T18:08:09;7.50;91.10
39021;DHT22;25188;51.958;5.842;2023-02-10T18:10:34;7.50;91.20
39021;DHT22;25188;51.958;5.842;2023-02-10T18:13:00;7.50;91.50